KRCR/RCR METAR and TAF weather

Enter ICAO airport designator
Station Type Date Time Source
KRCR METAR 2020/01/28 20:55 UTC NOAA

KRCR 282055Z AUTO 28004KT 7SM SCT011 SCT019 01/M01 A3007 RMK AO2


Station Type Date Time Source
KRCR Decoded METAR 2020/01/28 20:55 UTC NOAA

Station name not available
Jan 28, 2020 - 03:55 PM EST / 2020.01.28 2055 UTC
Wind: from the W (280 degrees) at 5 MPH (4 KT):0
Visibility: 7 mile(s):0
Sky conditions: partly cloudy
Temperature: 33 F (1 C)
Windchill: 28 F (-2 C):1
Dew Point: 30 F (-1 C)
Relative Humidity: 86%
Pressure (altimeter): 30.07 in. Hg (1018 hPa)
ob: KRCR 282055Z AUTO 28004KT 7SM SCT011 SCT019 01/M01 A3007 RMK AO2
cycle: 21

Station Type Date Time Source
KRCR TAF UTC NOAA

Error!

Example: see airport list